Monday, September 01, 2014
18:43 UTC
  |  Log In   |  Register Free
Airport Search:

Hillsboro Municipal Airport
(KINJ)

Hillsboro Municipal Airport Diagram
No Airport Diagram Available

FAA data valid effective July 24, 2014 until September 18, 2014 (unless otherwise noted).

 
 
 
 
 
 
 
 
 
 
 
 
 
 

Current Aviation Weather for Hillsboro Municipal Airport (KINJ)

The most recent METAR observation for KINJ was updated at: 1755 UTC
METAR Summary (Translated METAR)
KINJ
011755Z AUTO 17015G22KT 130V200 10SM CLR 34/20 A2992 RMK AO2 T03360202 10336 20245
KCPT
(23.6 nm NW from KINJ)
011755Z AUTO 18012G17KT 10SM CLR 33/22 A2993 RMK AO2
TAF
No TAF information found within 50 nm of KINJ
  Airport Weather Conditions for KINJ

 Current Weather at INJ
92° F
Fair
South winds at 17.3 mph
INJ NOAA Radar

Pressure: 29.92 in
Humidity: 45%
Wind: from the South at 17.3 gusting to 25.3 MPH (15 gusting to 22 KT)
Dew Point: 68.4°F
Visibility: 10.00 mi


Airport Weather Forecast for KINJ

Translated METAR and TAF for KINJ
Translated METAR for KINJ (1837 UTC 01 September 2014)
found at http://aviationweather.gov/adds/metars/
 
METAR text: KINJ 011815Z AUTO 17013G18KT 10SM CLR 34/20 A2992 RMK AO2 T03410198
Conditions at: KINJ (HILLSBORO , TX, US) observed 1815 UTC 01 September 2014
Temperature: 34.1°C (93°F)
Dewpoint: 19.8°C (68°F) [RH = 43%]
Pressure (altimeter): 29.92 inches Hg (1013.3 mb)
Winds: from the S (170 degrees) at 15 MPH (13 knots; 6.8 m/s)
gusting to 21 MPH (18 knots; 9.4 m/s)
Visibility: 10 or more miles (16+ km)
Ceiling: at least 12,000 feet AGL
Clouds: sky clear below 12,000 feet AGL
Weather: automated observation with no human augmentation;
there may or may not be significant weather present at this time
Translated TAF for KINJ

There is no translated TAF available for this airport

Find All Airport Services Find A Hotel Find A Rental Car Find A Golf Course Find A Restaurant $100 Hamburger



FBO's on the Field
FBO Company Facility Photos Services Transportation Aviation Fuel Prices: Prices include tax
Catering Weather Repair Courtesy Rental Type 100LL JetA JetA+ MOGAS 8087
 
Hillsboro Municipal Airport

This FBO has not yet been rated
FS:Avfuel
Last Updated: Aug-26
Login to update fuel prices
SS:
Contact Hillsboro Municipal AirportMore FBO Information
 
Add another FBO Facility Photos Catering Weather Repair Courtesy Rental Type 100LL JetA JetA+ MOGAS 8087
Services Transportation Aviation Fuel Prices: Prices include tax


GlobalAir.com Airport Resource Center model-print
model-print
model-print
model-print